sensor_id;sensor_type;location;lat;lon;timestamp;P1;durP1;ratioP1;P2;durP2;ratioP2
36995;SDS011;22905;50.340;10.776;2023-09-19T00:00:10;3.07;;;0.83;;
36995;SDS011;22905;50.340;10.776;2023-09-19T00:05:12;1.98;;;1.05;;
36995;SDS011;22905;50.340;10.776;2023-09-19T00:10:14;2.60;;;0.80;;
36995;SDS011;22905;50.340;10.776;2023-09-19T00:15:17;3.17;;;0.90;;
36995;SDS011;22905;50.340;10.776;2023-09-19T00:20:17;1.90;;;0.73;;
36995;SDS011;22905;50.340;10.776;2023-09-19T00:25:19;1.40;;;0.93;;
36995;SDS011;22905;50.340;10.776;2023-09-19T00:30:20;2.47;;;1.33;;
36995;SDS011;22905;50.340;10.776;2023-09-19T00:35:21;1.05;;;0.80;;
36995;SDS011;22905;50.340;10.776;2023-09-19T00:40:24;4.95;;;1.00;;
36995;SDS011;22905;50.340;10.776;2023-09-19T00:45:26;1.88;;;0.90;;
36995;SDS011;22905;50.340;10.776;2023-09-19T00:50:26;5.00;;;1.10;;
36995;SDS011;22905;50.340;10.776;2023-09-19T00:55:27;1.63;;;1.00;;
36995;SDS011;22905;50.340;10.776;2023-09-19T01:00:30;2.45;;;1.10;;
36995;SDS011;22905;50.340;10.776;2023-09-19T01:05:30;2.33;;;0.90;;
36995;SDS011;22905;50.340;10.776;2023-09-19T01:10:30;5.00;;;0.90;;
36995;SDS011;22905;50.340;10.776;2023-09-19T01:20:44;2.00;;;0.75;;
36995;SDS011;22905;50.340;10.776;2023-09-19T01:30:58;4.10;;;1.10;;
36995;SDS011;22905;50.340;10.776;2023-09-19T01:36:00;2.97;;;0.80;;
36995;SDS011;22905;50.340;10.776;2023-09-19T01:41:01;2.08;;;1.38;;
36995;SDS011;22905;50.340;10.776;2023-09-19T01:46:29;2.05;;;0.82;;
36995;SDS011;22905;50.340;10.776;2023-09-19T01:56:38;3.28;;;0.90;;
36995;SDS011;22905;50.340;10.776;2023-09-19T02:01:42;1.67;;;0.95;;
36995;SDS011;22905;50.340;10.776;2023-09-19T02:06:45;1.65;;;0.90;;
36995;SDS011;22905;50.340;10.776;2023-09-19T02:11:47;3.75;;;1.15;;
36995;SDS011;22905;50.340;10.776;2023-09-19T02:16:47;3.80;;;0.80;;
36995;SDS011;22905;50.340;10.776;2023-09-19T02:21:49;1.33;;;1.00;;
36995;SDS011;22905;50.340;10.776;2023-09-19T02:26:50;3.13;;;1.33;;
36995;SDS011;22905;50.340;10.776;2023-09-19T02:31:50;5.13;;;1.10;;
36995;SDS011;22905;50.340;10.776;2023-09-19T02:36:50;8.88;;;1.45;;
36995;SDS011;22905;50.340;10.776;2023-09-19T02:41:52;5.03;;;1.60;;
36995;SDS011;22905;50.340;10.776;2023-09-19T02:46:52;2.40;;;1.00;;
36995;SDS011;22905;50.340;10.776;2023-09-19T02:51:53;2.85;;;1.27;;
36995;SDS011;22905;50.340;10.776;2023-09-19T02:56:53;3.00;;;1.00;;
36995;SDS011;22905;50.340;10.776;2023-09-19T03:01:54;1.58;;;1.10;;
36995;SDS011;22905;50.340;10.776;2023-09-19T03:06:54;2.60;;;1.20;;
36995;SDS011;22905;50.340;10.776;2023-09-19T03:11:58;2.35;;;1.10;;
36995;SDS011;22905;50.340;10.776;2023-09-19T03:16:59;2.95;;;1.10;;
36995;SDS011;22905;50.340;10.776;2023-09-19T03:21:59;2.07;;;1.00;;
36995;SDS011;22905;50.340;10.776;2023-09-19T03:27:00;2.73;;;1.00;;
36995;SDS011;22905;50.340;10.776;2023-09-19T03:32:00;3.30;;;1.20;;
36995;SDS011;22905;50.340;10.776;2023-09-19T03:37:01;3.03;;;1.30;;
36995;SDS011;22905;50.340;10.776;2023-09-19T03:42:02;3.53;;;1.30;;
36995;SDS011;22905;50.340;10.776;2023-09-19T03:47:03;3.67;;;1.40;;
36995;SDS011;22905;50.340;10.776;2023-09-19T03:52:04;1.88;;;1.52;;
36995;SDS011;22905;50.340;10.776;2023-09-19T03:57:05;4.95;;;1.75;;
36995;SDS011;22905;50.340;10.776;2023-09-19T04:02:05;5.80;;;1.75;;
36995;SDS011;22905;50.340;10.776;2023-09-19T04:07:11;3.55;;;1.55;;
36995;SDS011;22905;50.340;10.776;2023-09-19T04:12:12;3.92;;;1.30;;
36995;SDS011;22905;50.340;10.776;2023-09-19T04:17:13;1.83;;;1.40;;
36995;SDS011;22905;50.340;10.776;2023-09-19T04:22:13;4.85;;;1.55;;
36995;SDS011;22905;50.340;10.776;2023-09-19T04:27:13;3.90;;;1.50;;
36995;SDS011;22905;50.340;10.776;2023-09-19T04:32:14;4.57;;;2.00;;
36995;SDS011;22905;50.340;10.776;2023-09-19T04:37:15;2.85;;;1.85;;
36995;SDS011;22905;50.340;10.776;2023-09-19T04:42:16;2.53;;;1.83;;
36995;SDS011;22905;50.340;10.776;2023-09-19T04:47:17;2.42;;;1.55;;
36995;SDS011;22905;50.340;10.776;2023-09-19T04:52:18;5.68;;;2.33;;
36995;SDS011;22905;50.340;10.776;2023-09-19T04:57:20;5.43;;;2.30;;
36995;SDS011;22905;50.340;10.776;2023-09-19T05:02:20;3.00;;;1.90;;
36995;SDS011;22905;50.340;10.776;2023-09-19T05:07:20;3.40;;;2.03;;
36995;SDS011;22905;50.340;10.776;2023-09-19T05:12:26;5.35;;;2.05;;
36995;SDS011;22905;50.340;10.776;2023-09-19T05:17:27;7.68;;;2.25;;
36995;SDS011;22905;50.340;10.776;2023-09-19T05:22:27;7.72;;;2.28;;
36995;SDS011;22905;50.340;10.776;2023-09-19T05:27:27;4.57;;;2.30;;
36995;SDS011;22905;50.340;10.776;2023-09-19T05:32:28;6.18;;;2.67;;
36995;SDS011;22905;50.340;10.776;2023-09-19T05:37:29;5.40;;;2.00;;
36995;SDS011;22905;50.340;10.776;2023-09-19T05:42:29;3.43;;;1.80;;
36995;SDS011;22905;50.340;10.776;2023-09-19T05:47:30;5.57;;;2.25;;
36995;SDS011;22905;50.340;10.776;2023-09-19T05:52:30;5.55;;;2.30;;
36995;SDS011;22905;50.340;10.776;2023-09-19T05:57:30;3.90;;;2.65;;
36995;SDS011;22905;50.340;10.776;2023-09-19T06:02:31;11.50;;;2.22;;
36995;SDS011;22905;50.340;10.776;2023-09-19T06:07:33;3.40;;;1.60;;
36995;SDS011;22905;50.340;10.776;2023-09-19T06:12:40;4.53;;;1.77;;
36995;SDS011;22905;50.340;10.776;2023-09-19T06:17:46;2.45;;;1.80;;
36995;SDS011;22905;50.340;10.776;2023-09-19T06:22:48;3.75;;;1.80;;
36995;SDS011;22905;50.340;10.776;2023-09-19T06:27:49;4.82;;;1.92;;
36995;SDS011;22905;50.340;10.776;2023-09-19T06:32:55;5.68;;;1.98;;
36995;SDS011;22905;50.340;10.776;2023-09-19T06:37:56;4.38;;;1.67;;
36995;SDS011;22905;50.340;10.776;2023-09-19T06:42:57;4.50;;;1.37;;
36995;SDS011;22905;50.340;10.776;2023-09-19T06:47:58;5.28;;;1.58;;
36995;SDS011;22905;50.340;10.776;2023-09-19T06:53:00;4.47;;;2.33;;
36995;SDS011;22905;50.340;10.776;2023-09-19T06:58:00;5.68;;;2.13;;
36995;SDS011;22905;50.340;10.776;2023-09-19T07:03:01;3.57;;;1.50;;
36995;SDS011;22905;50.340;10.776;2023-09-19T07:08:08;4.38;;;1.60;;
36995;SDS011;22905;50.340;10.776;2023-09-19T07:13:12;4.30;;;1.65;;
36995;SDS011;22905;50.340;10.776;2023-09-19T07:18:13;7.43;;;1.70;;
36995;SDS011;22905;50.340;10.776;2023-09-19T07:23:15;5.72;;;1.75;;
36995;SDS011;22905;50.340;10.776;2023-09-19T07:28:16;4.15;;;2.05;;
36995;SDS011;22905;50.340;10.776;2023-09-19T07:33:16;3.42;;;1.33;;
36995;SDS011;22905;50.340;10.776;2023-09-19T07:38:17;5.97;;;1.67;;
36995;SDS011;22905;50.340;10.776;2023-09-19T07:43:17;5.05;;;1.35;;
36995;SDS011;22905;50.340;10.776;2023-09-19T07:48:18;2.55;;;1.40;;
36995;SDS011;22905;50.340;10.776;2023-09-19T07:53:18;7.35;;;1.52;;
36995;SDS011;22905;50.340;10.776;2023-09-19T07:58:18;4.20;;;1.60;;
36995;SDS011;22905;50.340;10.776;2023-09-19T08:03:19;2.30;;;1.37;;
36995;SDS011;22905;50.340;10.776;2023-09-19T08:08:19;3.67;;;1.10;;
36995;SDS011;22905;50.340;10.776;2023-09-19T08:18:22;5.55;;;1.50;;
36995;SDS011;22905;50.340;10.776;2023-09-19T08:23:23;4.38;;;1.73;;
36995;SDS011;22905;50.340;10.776;2023-09-19T08:28:23;2.27;;;1.23;;
36995;SDS011;22905;50.340;10.776;2023-09-19T08:33:24;3.53;;;1.40;;
36995;SDS011;22905;50.340;10.776;2023-09-19T08:38:24;6.03;;;1.25;;
36995;SDS011;22905;50.340;10.776;2023-09-19T08:43:29;4.85;;;1.23;;
36995;SDS011;22905;50.340;10.776;2023-09-19T08:48:30;5.80;;;1.50;;
36995;SDS011;22905;50.340;10.776;2023-09-19T08:53:50;6.72;;;1.58;;
36995;SDS011;22905;50.340;10.776;2023-09-19T08:58:57;4.05;;;1.40;;
36995;SDS011;22905;50.340;10.776;2023-09-19T09:04:01;4.53;;;1.75;;
36995;SDS011;22905;50.340;10.776;2023-09-19T09:09:02;3.38;;;1.25;;
36995;SDS011;22905;50.340;10.776;2023-09-19T09:14:03;4.18;;;1.40;;
36995;SDS011;22905;50.340;10.776;2023-09-19T09:19:04;6.60;;;1.50;;
36995;SDS011;22905;50.340;10.776;2023-09-19T09:29:40;3.28;;;1.38;;
36995;SDS011;22905;50.340;10.776;2023-09-19T09:34:42;16.15;;;1.48;;
36995;SDS011;22905;50.340;10.776;2023-09-19T09:39:48;5.27;;;1.67;;
36995;SDS011;22905;50.340;10.776;2023-09-19T09:45:05;3.20;;;1.02;;
36995;SDS011;22905;50.340;10.776;2023-09-19T09:50:22;5.45;;;1.88;;
36995;SDS011;22905;50.340;10.776;2023-09-19T09:56:01;6.15;;;1.58;;
36995;SDS011;22905;50.340;10.776;2023-09-19T10:01:06;4.25;;;2.13;;
36995;SDS011;22905;50.340;10.776;2023-09-19T10:06:10;3.03;;;1.35;;
36995;SDS011;22905;50.340;10.776;2023-09-19T10:11:24;4.07;;;1.30;;
36995;SDS011;22905;50.340;10.776;2023-09-19T10:16:30;3.38;;;1.55;;
36995;SDS011;22905;50.340;10.776;2023-09-19T10:21:33;2.20;;;1.30;;
36995;SDS011;22905;50.340;10.776;2023-09-19T10:26:36;4.22;;;1.40;;
36995;SDS011;22905;50.340;10.776;2023-09-19T10:31:36;6.40;;;2.10;;
36995;SDS011;22905;50.340;10.776;2023-09-19T10:36:42;3.70;;;1.55;;
36995;SDS011;22905;50.340;10.776;2023-09-19T10:41:50;2.05;;;1.58;;
36995;SDS011;22905;50.340;10.776;2023-09-19T10:46:54;3.00;;;2.00;;
36995;SDS011;22905;50.340;10.776;2023-09-19T10:51:55;4.60;;;1.80;;
36995;SDS011;22905;50.340;10.776;2023-09-19T10:56:58;6.18;;;2.15;;
36995;SDS011;22905;50.340;10.776;2023-09-19T11:02:00;5.13;;;1.67;;
36995;SDS011;22905;50.340;10.776;2023-09-19T11:07:17;3.97;;;2.03;;
36995;SDS011;22905;50.340;10.776;2023-09-19T11:17:56;3.88;;;1.73;;
36995;SDS011;22905;50.340;10.776;2023-09-19T11:28:29;4.57;;;2.50;;
36995;SDS011;22905;50.340;10.776;2023-09-19T11:33:31;13.13;;;2.22;;
36995;SDS011;22905;50.340;10.776;2023-09-19T11:43:42;5.90;;;2.10;;
36995;SDS011;22905;50.340;10.776;2023-09-19T11:48:43;3.20;;;1.95;;
36995;SDS011;22905;50.340;10.776;2023-09-19T11:53:48;4.07;;;2.22;;
36995;SDS011;22905;50.340;10.776;2023-09-19T12:03:54;6.15;;;2.75;;
36995;SDS011;22905;50.340;10.776;2023-09-19T12:08:57;6.60;;;2.25;;
36995;SDS011;22905;50.340;10.776;2023-09-19T12:19:17;8.48;;;2.45;;
36995;SDS011;22905;50.340;10.776;2023-09-19T12:24:21;7.78;;;2.45;;
36995;SDS011;22905;50.340;10.776;2023-09-19T12:29:22;5.28;;;2.20;;
36995;SDS011;22905;50.340;10.776;2023-09-19T12:34:23;6.50;;;2.83;;
36995;SDS011;22905;50.340;10.776;2023-09-19T12:39:27;8.88;;;3.65;;
36995;SDS011;22905;50.340;10.776;2023-09-19T12:44:29;10.50;;;2.92;;
36995;SDS011;22905;50.340;10.776;2023-09-19T12:49:30;5.38;;;2.80;;
36995;SDS011;22905;50.340;10.776;2023-09-19T12:54:39;11.68;;;2.88;;
36995;SDS011;22905;50.340;10.776;2023-09-19T12:59:40;7.07;;;3.03;;
36995;SDS011;22905;50.340;10.776;2023-09-19T13:04:42;4.95;;;2.33;;
36995;SDS011;22905;50.340;10.776;2023-09-19T13:10:04;7.38;;;2.75;;
36995;SDS011;22905;50.340;10.776;2023-09-19T13:15:10;7.38;;;2.47;;
36995;SDS011;22905;50.340;10.776;2023-09-19T13:20:25;6.95;;;2.60;;
36995;SDS011;22905;50.340;10.776;2023-09-19T13:25:33;5.35;;;2.42;;
36995;SDS011;22905;50.340;10.776;2023-09-19T13:30:33;6.38;;;2.08;;
36995;SDS011;22905;50.340;10.776;2023-09-19T13:35:41;8.20;;;2.80;;
36995;SDS011;22905;50.340;10.776;2023-09-19T13:40:42;6.60;;;2.70;;
36995;SDS011;22905;50.340;10.776;2023-09-19T13:45:42;5.03;;;2.60;;
36995;SDS011;22905;50.340;10.776;2023-09-19T13:50:42;4.55;;;2.60;;
36995;SDS011;22905;50.340;10.776;2023-09-19T13:55:43;9.75;;;2.42;;
36995;SDS011;22905;50.340;10.776;2023-09-19T14:00:43;5.53;;;2.80;;
36995;SDS011;22905;50.340;10.776;2023-09-19T14:05:43;6.63;;;2.20;;
36995;SDS011;22905;50.340;10.776;2023-09-19T14:10:44;5.20;;;2.30;;
36995;SDS011;22905;50.340;10.776;2023-09-19T14:15:44;6.37;;;2.30;;
36995;SDS011;22905;50.340;10.776;2023-09-19T14:20:44;3.70;;;2.20;;
36995;SDS011;22905;50.340;10.776;2023-09-19T14:25:45;6.10;;;2.40;;
36995;SDS011;22905;50.340;10.776;2023-09-19T14:30:45;8.80;;;2.75;;
36995;SDS011;22905;50.340;10.776;2023-09-19T14:35:46;5.53;;;2.30;;
36995;SDS011;22905;50.340;10.776;2023-09-19T14:40:46;5.85;;;2.10;;
36995;SDS011;22905;50.340;10.776;2023-09-19T14:45:49;7.03;;;2.25;;
36995;SDS011;22905;50.340;10.776;2023-09-19T14:50:51;4.95;;;2.13;;
36995;SDS011;22905;50.340;10.776;2023-09-19T14:55:52;7.57;;;2.28;;
36995;SDS011;22905;50.340;10.776;2023-09-19T15:00:53;8.57;;;2.23;;
36995;SDS011;22905;50.340;10.776;2023-09-19T15:05:58;8.33;;;2.33;;
36995;SDS011;22905;50.340;10.776;2023-09-19T15:11:04;8.82;;;2.30;;
36995;SDS011;22905;50.340;10.776;2023-09-19T15:16:06;5.90;;;2.05;;
36995;SDS011;22905;50.340;10.776;2023-09-19T15:21:10;10.15;;;2.60;;
36995;SDS011;22905;50.340;10.776;2023-09-19T15:26:12;7.47;;;2.20;;
36995;SDS011;22905;50.340;10.776;2023-09-19T15:36:14;5.85;;;2.28;;
36995;SDS011;22905;50.340;10.776;2023-09-19T15:41:15;6.50;;;2.28;;
36995;SDS011;22905;50.340;10.776;2023-09-19T15:46:15;5.28;;;2.85;;
36995;SDS011;22905;50.340;10.776;2023-09-19T15:51:16;7.70;;;2.15;;
36995;SDS011;22905;50.340;10.776;2023-09-19T15:56:16;8.30;;;2.40;;
36995;SDS011;22905;50.340;10.776;2023-09-19T16:01:17;9.02;;;2.35;;
36995;SDS011;22905;50.340;10.776;2023-09-19T16:06:18;6.28;;;2.38;;
36995;SDS011;22905;50.340;10.776;2023-09-19T16:11:20;7.82;;;1.92;;
36995;SDS011;22905;50.340;10.776;2023-09-19T16:16:21;6.77;;;3.33;;
36995;SDS011;22905;50.340;10.776;2023-09-19T16:21:25;13.63;;;2.03;;
36995;SDS011;22905;50.340;10.776;2023-09-19T16:26:26;4.95;;;2.08;;
36995;SDS011;22905;50.340;10.776;2023-09-19T16:31:29;3.72;;;1.77;;
36995;SDS011;22905;50.340;10.776;2023-09-19T16:36:30;7.55;;;2.38;;
36995;SDS011;22905;50.340;10.776;2023-09-19T16:41:31;4.38;;;1.75;;
36995;SDS011;22905;50.340;10.776;2023-09-19T16:46:33;4.95;;;1.83;;
36995;SDS011;22905;50.340;10.776;2023-09-19T16:51:35;3.92;;;1.67;;
36995;SDS011;22905;50.340;10.776;2023-09-19T16:56:35;5.55;;;2.28;;
36995;SDS011;22905;50.340;10.776;2023-09-19T17:01:37;5.53;;;2.08;;
36995;SDS011;22905;50.340;10.776;2023-09-19T17:06:39;7.03;;;1.92;;
36995;SDS011;22905;50.340;10.776;2023-09-19T17:11:39;6.03;;;2.37;;
36995;SDS011;22905;50.340;10.776;2023-09-19T17:16:39;7.10;;;2.22;;
36995;SDS011;22905;50.340;10.776;2023-09-19T17:21:41;4.82;;;2.05;;
36995;SDS011;22905;50.340;10.776;2023-09-19T17:26:42;8.30;;;2.17;;
36995;SDS011;22905;50.340;10.776;2023-09-19T17:31:42;6.07;;;1.60;;
36995;SDS011;22905;50.340;10.776;2023-09-19T17:36:43;7.83;;;1.90;;
36995;SDS011;22905;50.340;10.776;2023-09-19T17:41:43;7.53;;;2.30;;
36995;SDS011;22905;50.340;10.776;2023-09-19T17:46:44;4.63;;;1.87;;
36995;SDS011;22905;50.340;10.776;2023-09-19T17:51:44;3.85;;;1.70;;
36995;SDS011;22905;50.340;10.776;2023-09-19T17:56:44;7.07;;;1.98;;
36995;SDS011;22905;50.340;10.776;2023-09-19T18:01:45;8.68;;;2.13;;
36995;SDS011;22905;50.340;10.776;2023-09-19T18:06:45;4.37;;;2.20;;
36995;SDS011;22905;50.340;10.776;2023-09-19T18:11:48;7.10;;;1.98;;
36995;SDS011;22905;50.340;10.776;2023-09-19T18:16:49;4.13;;;1.87;;
36995;SDS011;22905;50.340;10.776;2023-09-19T18:21:49;5.72;;;2.05;;
36995;SDS011;22905;50.340;10.776;2023-09-19T18:26:50;9.52;;;2.15;;
36995;SDS011;22905;50.340;10.776;2023-09-19T18:31:51;6.93;;;2.40;;
36995;SDS011;22905;50.340;10.776;2023-09-19T18:36:51;8.77;;;2.20;;
36995;SDS011;22905;50.340;10.776;2023-09-19T18:41:54;19.75;;;5.85;;
36995;SDS011;22905;50.340;10.776;2023-09-19T18:46:54;12.95;;;4.53;;
36995;SDS011;22905;50.340;10.776;2023-09-19T18:51:56;18.60;;;5.13;;
36995;SDS011;22905;50.340;10.776;2023-09-19T18:56:56;21.55;;;6.78;;
36995;SDS011;22905;50.340;10.776;2023-09-19T19:01:58;21.45;;;5.47;;
36995;SDS011;22905;50.340;10.776;2023-09-19T19:06:58;17.37;;;4.40;;
36995;SDS011;22905;50.340;10.776;2023-09-19T19:11:59;17.25;;;4.03;;
36995;SDS011;22905;50.340;10.776;2023-09-19T19:17:00;19.95;;;4.00;;
36995;SDS011;22905;50.340;10.776;2023-09-19T19:22:00;13.13;;;4.68;;
36995;SDS011;22905;50.340;10.776;2023-09-19T19:27:01;12.45;;;4.75;;
36995;SDS011;22905;50.340;10.776;2023-09-19T19:32:02;17.02;;;5.30;;
36995;SDS011;22905;50.340;10.776;2023-09-19T19:37:02;11.05;;;3.92;;
36995;SDS011;22905;50.340;10.776;2023-09-19T19:42:03;14.68;;;6.68;;
36995;SDS011;22905;50.340;10.776;2023-09-19T19:47:03;12.93;;;3.90;;
36995;SDS011;22905;50.340;10.776;2023-09-19T19:52:04;12.85;;;4.85;;
36995;SDS011;22905;50.340;10.776;2023-09-19T19:57:05;17.23;;;4.60;;
36995;SDS011;22905;50.340;10.776;2023-09-19T20:02:05;12.38;;;4.07;;
36995;SDS011;22905;50.340;10.776;2023-09-19T20:07:06;13.05;;;3.80;;
36995;SDS011;22905;50.340;10.776;2023-09-19T20:12:06;10.60;;;2.97;;
36995;SDS011;22905;50.340;10.776;2023-09-19T20:17:07;8.65;;;3.00;;
36995;SDS011;22905;50.340;10.776;2023-09-19T20:22:10;17.95;;;3.65;;
36995;SDS011;22905;50.340;10.776;2023-09-19T20:27:12;10.35;;;3.75;;
36995;SDS011;22905;50.340;10.776;2023-09-19T20:32:13;9.48;;;3.33;;
36995;SDS011;22905;50.340;10.776;2023-09-19T20:37:13;19.45;;;4.00;;
36995;SDS011;22905;50.340;10.776;2023-09-19T20:42:15;18.45;;;5.40;;
36995;SDS011;22905;50.340;10.776;2023-09-19T20:47:16;17.38;;;5.53;;
36995;SDS011;22905;50.340;10.776;2023-09-19T20:52:16;13.10;;;5.28;;
36995;SDS011;22905;50.340;10.776;2023-09-19T20:57:16;10.30;;;3.80;;
36995;SDS011;22905;50.340;10.776;2023-09-19T21:02:17;16.20;;;4.87;;
36995;SDS011;22905;50.340;10.776;2023-09-19T21:07:17;12.30;;;4.65;;
36995;SDS011;22905;50.340;10.776;2023-09-19T21:12:17;7.43;;;2.90;;
36995;SDS011;22905;50.340;10.776;2023-09-19T21:17:18;8.02;;;3.15;;
36995;SDS011;22905;50.340;10.776;2023-09-19T21:22:19;6.93;;;3.05;;
36995;SDS011;22905;50.340;10.776;2023-09-19T21:27:20;10.93;;;3.13;;
36995;SDS011;22905;50.340;10.776;2023-09-19T21:32:20;6.50;;;3.33;;
36995;SDS011;22905;50.340;10.776;2023-09-19T21:37:20;6.73;;;3.30;;
36995;SDS011;22905;50.340;10.776;2023-09-19T21:42:23;8.65;;;3.13;;
36995;SDS011;22905;50.340;10.776;2023-09-19T21:47:24;7.97;;;2.40;;
36995;SDS011;22905;50.340;10.776;2023-09-19T21:52:24;5.87;;;2.57;;
36995;SDS011;22905;50.340;10.776;2023-09-19T21:57:24;14.07;;;4.85;;
36995;SDS011;22905;50.340;10.776;2023-09-19T22:02:24;11.85;;;4.32;;
36995;SDS011;22905;50.340;10.776;2023-09-19T22:07:25;7.60;;;4.07;;
36995;SDS011;22905;50.340;10.776;2023-09-19T22:12:26;9.07;;;3.00;;
36995;SDS011;22905;50.340;10.776;2023-09-19T22:17:26;10.77;;;3.22;;
36995;SDS011;22905;50.340;10.776;2023-09-19T22:22:27;6.03;;;3.03;;
36995;SDS011;22905;50.340;10.776;2023-09-19T22:27:29;9.32;;;2.72;;
36995;SDS011;22905;50.340;10.776;2023-09-19T22:32:30;5.55;;;2.25;;
36995;SDS011;22905;50.340;10.776;2023-09-19T22:37:31;4.70;;;2.15;;
36995;SDS011;22905;50.340;10.776;2023-09-19T22:42:31;5.45;;;2.65;;
36995;SDS011;22905;50.340;10.776;2023-09-19T22:47:33;4.47;;;2.67;;
36995;SDS011;22905;50.340;10.776;2023-09-19T22:52:34;5.70;;;2.65;;
36995;SDS011;22905;50.340;10.776;2023-09-19T22:57:36;5.20;;;2.15;;
36995;SDS011;22905;50.340;10.776;2023-09-19T23:02:36;7.32;;;4.03;;
36995;SDS011;22905;50.340;10.776;2023-09-19T23:07:41;6.85;;;2.83;;
36995;SDS011;22905;50.340;10.776;2023-09-19T23:12:47;11.52;;;2.55;;
36995;SDS011;22905;50.340;10.776;2023-09-19T23:17:48;5.63;;;2.55;;
36995;SDS011;22905;50.340;10.776;2023-09-19T23:22:49;3.60;;;2.58;;
36995;SDS011;22905;50.340;10.776;2023-09-19T23:27:54;7.75;;;2.55;;
36995;SDS011;22905;50.340;10.776;2023-09-19T23:32:56;2.63;;;2.22;;
36995;SDS011;22905;50.340;10.776;2023-09-19T23:37:56;8.33;;;2.70;;
36995;SDS011;22905;50.340;10.776;2023-09-19T23:43:00;5.30;;;2.45;;
36995;SDS011;22905;50.340;10.776;2023-09-19T23:48:01;6.03;;;2.50;;
36995;SDS011;22905;50.340;10.776;2023-09-19T23:53:01;2.60;;;2.40;;
36995;SDS011;22905;50.340;10.776;2023-09-19T23:58:06;5.55;;;2.40;;
